TimeCDT,TemperatureF,Dew PointF,Humidity,Sea Level PressureIn,VisibilityMPH,Wind Direction,Wind SpeedMPH,Gust SpeedMPH,PrecipitationIn,Events,Conditions,WindDirDegrees,DateUTC
12:09 AM,35.2,29.7,80,30.27,10.0,SE,5.8,-,N/A,,Mostly Cloudy,140,2012-10-29 05:09:00
12:29 AM,34.0,29.1,82,30.26,10.0,SE,5.8,-,N/A,,Scattered Clouds,140,2012-10-29 05:29:00
12:48 AM,34.0,29.3,83,30.26,10.0,SE,5.8,-,N/A,,Scattered Clouds,140,2012-10-29 05:48:00
1:09 AM,34.0,28.9,82,30.26,10.0,SE,5.8,-,N/A,,Mostly Cloudy,130,2012-10-29 06:09:00
1:29 AM,34.0,29.3,83,30.26,10.0,SE,5.8,-,N/A,,Scattered Clouds,130,2012-10-29 06:29:00
1:49 AM,34.0,30.0,85,30.26,10.0,SE,5.8,-,N/A,,Scattered Clouds,130,2012-10-29 06:49:00
2:08 AM,34.0,29.3,83,30.26,10.0,SE,4.6,-,N/A,,Clear,140,2012-10-29 07:08:00
2:28 AM,31.8,27.3,83,30.28,10.0,ESE,5.8,-,N/A,,Clear,120,2012-10-29 07:28:00
2:49 AM,31.8,27.3,83,30.28,10.0,ESE,4.6,-,N/A,,Clear,120,2012-10-29 07:49:00
3:08 AM,30.6,26.4,85,30.27,10.0,SE,4.6,-,N/A,,Clear,130,2012-10-29 08:08:00
3:29 AM,30.6,26.4,85,30.27,10.0,ESE,5.8,-,N/A,,Clear,120,2012-10-29 08:29:00
3:49 AM,30.6,26.1,83,30.26,10.0,ESE,4.6,-,N/A,,Clear,120,2012-10-29 08:49:00
4:08 AM,30.9,26.2,83,30.26,10.0,ESE,5.8,-,N/A,,Clear,120,2012-10-29 09:08:00
4:29 AM,31.8,26.6,81,30.26,10.0,ESE,6.9,-,N/A,,Clear,120,2012-10-29 09:29:00
4:49 AM,31.8,26.6,81,30.26,10.0,ESE,5.8,-,N/A,,Scattered Clouds,120,2012-10-29 09:49:00
5:08 AM,31.8,26.4,80,30.26,10.0,ESE,5.8,-,N/A,,Mostly Cloudy,110,2012-10-29 10:08:00
5:49 AM,34.0,28.6,81,30.25,10.0,ESE,8.1,-,N/A,,Scattered Clouds,110,2012-10-29 10:49:00
6:08 AM,34.0,28.0,79,30.25,10.0,ESE,9.2,-,N/A,,Scattered Clouds,120,2012-10-29 11:08:00
6:48 AM,34.0,27.1,76,30.25,10.0,SE,8.1,-,N/A,,Overcast,140,2012-10-29 11:48:00
7:09 AM,34.0,27.0,75,30.25,10.0,SE,6.9,-,N/A,,Mostly Cloudy,130,2012-10-29 12:09:00
7:29 AM,34.9,27.3,74,30.25,10.0,SE,9.2,-,N/A,,Mostly Cloudy,130,2012-10-29 12:29:00
7:49 AM,35.2,27.5,73,30.25,10.0,SE,9.2,-,N/A,,Overcast,130,2012-10-29 12:49:00
8:09 AM,35.2,27.5,73,30.26,10.0,SE,8.1,-,N/A,,Overcast,140,2012-10-29 13:09:00
8:29 AM,35.6,27.9,73,30.26,10.0,SE,9.2,-,N/A,,Overcast,130,2012-10-29 13:29:00
8:49 AM,36.5,27.7,70,30.25,10.0,SE,10.4,-,N/A,,Overcast,130,2012-10-29 13:49:00
9:09 AM,36.5,27.3,69,30.25,10.0,SE,11.5,-,N/A,,Overcast,130,2012-10-29 14:09:00
9:28 AM,36.5,27.7,70,30.25,10.0,SE,10.4,-,N/A,,Overcast,130,2012-10-29 14:28:00
9:48 AM,36.5,27.5,70,30.25,10.0,SE,10.4,-,N/A,,Overcast,140,2012-10-29 14:48:00
10:09 AM,39.2,29.3,68,30.26,10.0,SE,9.2,-,N/A,,Overcast,130,2012-10-29 15:09:00
10:28 AM,39.2,29.3,68,30.26,10.0,SE,11.5,-,N/A,,Overcast,130,2012-10-29 15:28:00
10:48 AM,39.2,29.1,67,30.25,10.0,ESE,12.7,17.3,N/A,,Overcast,120,2012-10-29 15:48:00
11:08 AM,40.3,29.8,66,30.26,10.0,SE,12.7,17.3,N/A,,Overcast,130,2012-10-29 16:08:00
11:29 AM,41.5,30.6,65,30.27,10.0,SE,10.4,-,N/A,,Overcast,130,2012-10-29 16:29:00
11:36 AM,41.5,30.7,65,30.27,10.0,SE,11.5,-,N/A,,Overcast,140,2012-10-29 16:36:00
12:10 PM,42.8,30.2,61,30.27,10.0,SSE,11.5,18.4,N/A,,Overcast,150,2012-10-29 17:10:00
12:30 PM,42.8,30.2,61,30.26,10.0,SE,10.4,18.4,N/A,,Overcast,140,2012-10-29 17:30:00
12:50 PM,46.4,32.0,57,30.25,10.0,SE,10.4,-,N/A,,Overcast,140,2012-10-29 17:50:00
1:10 PM,44.6,32.0,61,30.25,10.0,SSE,12.7,-,N/A,,Overcast,150,2012-10-29 18:10:00
1:30 PM,46.4,33.8,62,30.24,10.0,SE,11.5,17.3,N/A,,Overcast,140,2012-10-29 18:30:00
1:50 PM,46.4,32.0,57,30.24,10.0,SE,12.7,17.3,N/A,,Overcast,140,2012-10-29 18:50:00
2:10 PM,46.4,32.0,57,30.24,10.0,SSE,11.5,19.6,N/A,,Overcast,150,2012-10-29 19:10:00
2:30 PM,46.4,32.0,57,30.23,10.0,SE,16.1,-,N/A,,Overcast,130,2012-10-29 19:30:00
2:50 PM,46.4,32.0,57,30.22,10.0,SE,13.8,-,N/A,,Overcast,140,2012-10-29 19:50:00
3:00 PM,47.8,32.9,56,30.22,10.0,SE,13.8,-,N/A,,Overcast,130,2012-10-29 20:00:00
3:09 PM,49.1,33.6,55,30.22,10.0,SE,13.8,-,N/A,,Overcast,130,2012-10-29 20:09:00
3:29 PM,49.1,34.3,57,30.23,10.0,ESE,13.8,-,N/A,,Overcast,120,2012-10-29 20:29:00
3:49 PM,49.1,33.3,54,30.23,10.0,ESE,15.0,-,N/A,,Overcast,120,2012-10-29 20:49:00
4:09 PM,49.1,32.4,53,30.22,10.0,ESE,13.8,23.0,N/A,,Mostly Cloudy,120,2012-10-29 21:09:00
4:28 PM,49.1,32.0,52,30.22,10.0,SE,15.0,-,N/A,,Scattered Clouds,130,2012-10-29 21:28:00
4:49 PM,49.1,32.2,52,30.21,10.0,ESE,11.5,-,N/A,,Clear,120,2012-10-29 21:49:00
5:09 PM,46.9,32.2,57,30.21,10.0,ESE,12.7,-,N/A,,Clear,110,2012-10-29 22:09:00
5:29 PM,46.6,32.4,58,30.21,10.0,ESE,12.7,-,N/A,,Clear,110,2012-10-29 22:29:00
5:48 PM,43.7,31.3,62,30.21,10.0,ESE,11.5,-,N/A,,Clear,120,2012-10-29 22:48:00
6:09 PM,41.9,31.1,66,30.21,10.0,ESE,9.2,-,N/A,,Clear,120,2012-10-29 23:09:00
6:27 PM,41.4,31.8,69,30.22,10.0,ESE,9.2,-,N/A,,Clear,110,2012-10-29 23:27:00
6:49 PM,39.2,31.1,73,30.23,10.0,ESE,6.9,-,N/A,,Clear,110,2012-10-29 23:49:00
7:09 PM,39.2,31.8,75,30.24,10.0,ESE,6.9,-,N/A,,Clear,110,2012-10-30 00:09:00
7:28 PM,37.6,31.1,77,30.24,10.0,East,3.5,-,N/A,,Clear,90,2012-10-30 00:28:00
7:48 PM,36.7,30.4,78,30.24,10.0,East,4.6,-,N/A,,Clear,90,2012-10-30 00:48:00
8:09 PM,36.5,30.9,80,30.23,10.0,East,4.6,-,N/A,,Clear,90,2012-10-30 01:09:00
8:29 PM,36.3,31.1,81,30.22,10.0,East,8.1,-,N/A,,Clear,90,2012-10-30 01:29:00
8:49 PM,36.5,30.7,80,30.22,10.0,East,6.9,-,N/A,,Clear,100,2012-10-30 01:49:00
9:09 PM,36.5,31.1,81,30.23,10.0,East,6.9,-,N/A,,Clear,100,2012-10-30 02:09:00
9:28 PM,36.5,31.1,81,30.23,10.0,East,6.9,-,N/A,,Clear,100,2012-10-30 02:28:00
9:49 PM,36.0,31.3,83,30.23,10.0,East,6.9,-,N/A,,Clear,90,2012-10-30 02:49:00
10:08 PM,35.8,31.1,83,30.23,10.0,East,6.9,-,N/A,,Clear,90,2012-10-30 03:08:00
10:29 PM,35.2,30.9,84,30.22,10.0,East,6.9,-,N/A,,Clear,90,2012-10-30 03:29:00
10:49 PM,35.1,30.6,84,30.22,10.0,East,8.1,-,N/A,,Clear,90,2012-10-30 03:49:00
11:09 PM,34.0,29.8,85,30.22,10.0,East,6.9,-,N/A,,Clear,90,2012-10-30 04:09:00
11:29 PM,34.0,29.8,85,30.21,10.0,East,6.9,-,N/A,,Clear,90,2012-10-30 04:29:00
11:49 PM,34.0,30.0,85,30.21,10.0,East,6.9,-,N/A,,Clear,90,2012-10-30 04:49:00